createdAt,value
2019-06-26T03:39:38.235Z,13.70
2019-06-26T03:42:40.210Z,17.32
2019-06-26T03:45:43.804Z,16.70
2019-06-26T03:48:41.654Z,17.75
2019-06-26T03:51:41.726Z,16.50
2019-06-26T03:54:49.197Z,17.17
2019-06-26T03:57:50.609Z,16.95
2019-06-26T04:00:50.241Z,16.32
2019-06-26T04:03:59.283Z,16.65
2019-06-26T04:06:58.396Z,17.98
2019-06-26T04:09:56.853Z,17.85
2019-06-26T04:13:01.169Z,17.92
2019-06-26T04:15:59.033Z,17.32
2019-06-26T04:18:58.196Z,17.00
2019-06-26T04:21:59.611Z,17.02
2019-06-26T04:24:57.755Z,16.50
2019-06-26T04:28:00.146Z,16.05
2019-06-26T04:30:51.952Z,15.58
2019-06-26T04:33:49.874Z,15.30
2019-06-26T04:36:49.597Z,15.38
2019-06-26T04:39:46.069Z,16.60
2019-06-26T04:42:43.792Z,16.02
2019-06-26T04:45:57.648Z,16.12
2019-06-26T04:48:48.044Z,16.25
2019-06-26T04:51:49.642Z,16.12
2019-06-26T04:54:47.421Z,15.53
2019-06-26T04:57:57.561Z,16.60
2019-06-26T05:01:01.839Z,16.42
2019-06-26T05:04:04.599Z,15.95
2019-06-26T05:07:02.649Z,16.12
2019-06-26T05:10:01.535Z,15.88
2019-06-26T05:13:10.910Z,16.07
2019-06-26T05:16:15.493Z,15.75
2019-06-26T05:19:05.213Z,16.23
2019-06-26T05:25:08.765Z,15.83
2019-06-26T05:30:58.427Z,16.55
2019-06-26T05:36:50.465Z,18.05
2019-06-26T05:39:58.745Z,16.52
2019-06-26T05:42:57.011Z,16.95
2019-06-26T05:45:53.600Z,16.80
2019-06-26T05:48:55.469Z,16.62
2019-06-26T05:51:51.002Z,17.15
2019-06-26T05:54:50.577Z,17.25
2019-06-26T05:57:51.046Z,17.12
2019-06-26T06:00:57.325Z,17.23
2019-06-26T06:04:01.819Z,17.57
2019-06-26T06:07:01.797Z,17.85
2019-06-26T06:10:02.283Z,17.27
2019-06-26T06:12:59.938Z,17.50
2019-06-26T06:15:58.432Z,17.40
2019-06-26T06:19:31.799Z,17.98
2019-06-26T06:22:36.879Z,17.48
2019-06-26T06:25:38.439Z,18.32
2019-06-26T06:28:42.303Z,17.30
2019-06-26T06:34:39.827Z,16.30
2019-06-26T06:37:38.296Z,17.60
2019-06-26T06:43:22.652Z,18.85
2019-06-26T06:46:19.198Z,19.15
2019-06-26T06:49:14.225Z,18.02
2019-06-26T06:52:10.941Z,18.10
2019-06-26T06:55:17.142Z,17.20
2019-06-26T06:58:16.251Z,16.40
2019-06-26T07:01:13.728Z,15.18
2019-06-26T07:07:04.570Z,16.30
2019-06-26T07:10:02.306Z,16.60
2019-06-26T07:12:58.131Z,16.97
2019-06-26T07:15:54.296Z,16.70
2019-06-26T07:18:49.796Z,18.20
2019-06-26T07:21:47.647Z,16.70
2019-06-26T07:27:39.976Z,16.70
2019-06-26T07:30:36.771Z,15.72
2019-06-26T07:33:32.296Z,16.05
2019-06-26T07:36:28.405Z,15.65
2019-06-26T07:39:24.592Z,15.98
2019-06-26T07:42:28.577Z,15.40
2019-06-26T07:45:26.234Z,15.48
2019-06-26T07:48:22.687Z,15.93
2019-06-26T07:51:19.077Z,15.00
2019-06-26T07:54:17.082Z,15.38
2019-06-26T07:57:14.380Z,15.28
2019-06-26T08:00:11.629Z,14.90
2019-06-26T08:03:08.413Z,14.30
2019-06-26T08:06:08.040Z,14.53
2019-06-26T08:09:05.200Z,13.93
2019-06-26T08:12:02.775Z,14.05
2019-06-26T08:14:58.558Z,13.48
2019-06-26T08:18:01.643Z,14.00
2019-06-26T08:21:11.482Z,14.40
2019-06-26T08:23:57.836Z,13.05
2019-06-26T08:26:56.728Z,14.75
2019-06-26T08:29:56.125Z,13.25
2019-06-26T08:32:52.733Z,13.68
2019-06-26T08:38:38.958Z,13.72
2019-06-26T08:41:38.322Z,13.68
2019-06-26T08:44:35.668Z,13.93
2019-06-26T08:47:34.058Z,13.25
2019-06-26T08:50:32.024Z,12.98
2019-06-26T08:53:29.414Z,13.78
2019-06-26T09:02:05.252Z,13.98
2019-06-26T09:05:07.865Z,14.05
2019-06-26T09:08:05.290Z,13.90
2019-06-26T09:11:00.540Z,14.15
2019-06-26T09:13:57.544Z,14.65
2019-06-26T09:16:55.190Z,14.10
2019-06-26T09:19:54.055Z,14.33
2019-06-26T09:22:55.624Z,14.18
2019-06-26T09:25:52.658Z,13.83
2019-06-26T09:28:49.190Z,14.78
2019-06-26T09:31:44.256Z,14.70
2019-06-26T09:34:47.986Z,14.55
2019-06-26T09:37:43.741Z,14.30
2019-06-26T09:40:39.975Z,14.63
2019-06-26T09:43:35.282Z,15.30
2019-06-26T09:46:30.218Z,14.53
2019-06-26T09:49:37.059Z,14.43
2019-06-26T09:52:41.892Z,15.08
2019-06-26T09:55:45.702Z,15.05
2019-06-26T09:58:46.197Z,15.25
2019-06-26T10:01:54.387Z,15.63
2019-06-26T10:04:53.214Z,15.58
2019-06-26T10:07:57.451Z,16.75
2019-06-26T10:10:53.330Z,15.72
2019-06-26T10:13:52.123Z,16.05
2019-06-26T10:16:55.691Z,15.95
2019-06-26T10:19:53.961Z,16.62
2019-06-26T10:22:59.018Z,16.37
2019-06-26T10:26:01.213Z,15.65
2019-06-26T10:29:02.599Z,16.42
2019-06-26T10:31:58.887Z,16.50
2019-06-26T10:34:56.499Z,16.67
2019-06-26T10:37:56.045Z,16.00
2019-06-26T10:40:52.084Z,16.37
2019-06-26T10:43:48.013Z,16.27
2019-06-26T10:46:37.734Z,15.30
2019-06-26T10:49:34.549Z,15.45
2019-06-26T10:52:29.848Z,15.35
2019-06-26T10:55:34.287Z,15.80
2019-06-26T10:58:32.515Z,14.95
2019-06-26T11:01:33.103Z,15.13
2019-06-26T11:04:29.179Z,14.70
2019-06-26T11:07:24.685Z,15.40
2019-06-26T11:10:22.647Z,14.28
2019-06-26T11:13:19.627Z,15.23
2019-06-26T11:16:18.234Z,15.45
2019-06-26T11:19:18.087Z,15.20
2019-06-26T11:22:16.483Z,14.23
2019-06-26T11:25:16.454Z,13.48
2019-06-26T11:28:12.719Z,14.05
2019-06-26T11:31:09.719Z,14.85
2019-06-26T11:34:07.412Z,14.15
2019-06-26T11:37:05.265Z,13.65
2019-06-26T11:40:04.166Z,13.93
2019-06-26T11:43:00.363Z,14.63
2019-06-26T11:45:55.598Z,13.95
2019-06-26T11:48:53.908Z,13.75
2019-06-26T11:51:51.025Z,14.18
2019-06-26T11:55:01.363Z,13.88
2019-06-26T11:57:43.957Z,13.98
2019-06-26T12:00:41.683Z,14.15
2019-06-26T12:03:37.757Z,13.95
2019-06-26T12:06:35.147Z,13.05
2019-06-26T12:09:31.139Z,14.60
2019-06-26T12:12:28.609Z,14.30
2019-06-26T12:15:25.843Z,14.38
2019-06-26T12:18:21.146Z,13.83
2019-06-26T12:21:20.843Z,13.40
2019-06-26T12:24:18.923Z,14.85
2019-06-26T12:27:15.187Z,14.25
2019-06-26T12:30:15.028Z,13.72
2019-06-26T12:33:12.091Z,13.60
2019-06-26T12:36:10.562Z,14.43
2019-06-26T12:39:07.025Z,13.95
2019-06-26T12:42:02.699Z,14.43
2019-06-26T12:44:58.455Z,13.60
2019-06-26T12:47:54.515Z,13.80
2019-06-26T12:50:50.866Z,14.03
2019-06-26T12:53:48.419Z,13.78
2019-06-26T12:56:50.434Z,13.40
2019-06-26T12:59:56.654Z,14.18
2019-06-26T13:02:44.710Z,13.38
2019-06-26T13:05:43.600Z,12.95
2019-06-26T13:08:43.086Z,13.38
2019-06-26T13:11:33.604Z,13.22
2019-06-26T13:14:31.675Z,13.30
2019-06-26T13:17:29.231Z,13.10
2019-06-26T13:20:25.799Z,13.03
2019-06-26T13:23:22.931Z,13.70
2019-06-26T13:26:20.843Z,14.15
2019-06-26T13:29:18.251Z,13.15
2019-06-26T13:32:16.710Z,13.22
2019-06-26T13:35:12.420Z,13.35
2019-06-26T13:38:09.496Z,14.07
2019-06-26T13:40:59.077Z,14.25
2019-06-26T13:43:59.884Z,14.33
2019-06-26T13:46:53.533Z,14.78
2019-06-26T13:49:51.291Z,14.98
2019-06-26T13:52:47.087Z,15.30
2019-06-26T13:55:44.771Z,15.25
2019-06-26T13:58:42.037Z,16.27
2019-06-26T14:01:38.358Z,15.55
2019-06-26T14:04:35.134Z,15.50
2019-06-26T14:07:30.720Z,15.70
2019-06-26T14:10:27.905Z,15.25
2019-06-26T14:13:24.562Z,15.50
2019-06-26T14:16:20.129Z,15.65
2019-06-26T14:19:16.479Z,15.98
2019-06-26T14:22:13.199Z,14.63
2019-06-26T14:25:10.159Z,15.80
